Time;durP1;ratioP1;P1;durP2;ratioP2;P2;SDS_P1;SDS_P2;PMS_P1;PMS_P2;Temp;Humidity;BMP_temperature;BMP_pressure;BME280_temperature;BME280_humidity;BME280_pressure;Samples;Min_cycle;Max_cycle;Signal;HPM_P1;HPM_P2
2023/01/17 00:18:16;;;;;;;1.40;1.10;;;1.80;99.90;;;;;;21008582;28;20025;-79
2023/01/17 01:40:01;;;;;;;1.67;1.30;;;1.50;99.90;;;;;;20999369;28;20116;-80
2023/01/17 01:50:07;;;;;;;3.15;1.50;;;1.60;99.90;;;;;;20980644;28;20028;-78
2023/01/17 02:00:15;;;;;;;5.20;1.60;;;1.60;99.90;;;;;;20931727;28;20099;-80
2023/01/17 02:10:16;;;;;;;9.80;1.70;;;1.60;99.90;;;;;;21078803;28;20025;-80
2023/01/17 02:20:41;;;;;;;3.13;1.42;;;1.70;99.90;;;;;;20996950;28;20075;-80
2023/01/17 02:30:48;;;;;;;2.92;1.40;;;1.60;99.90;;;;;;20998046;28;20535;-79
2023/01/17 02:40:57;;;;;;;4.30;1.92;;;1.60;99.90;;;;;;20999862;28;20119;-80
2023/01/17 02:51:27;;;;;;;2.70;1.65;;;1.60;99.90;;;;;;21013276;28;20060;-79
2023/01/17 03:01:43;;;;;;;2.13;1.50;;;1.60;99.90;;;;;;21031936;28;20040;-79
2023/01/17 03:11:44;;;;;;;2.35;1.65;;;1.60;99.90;;;;;;21095970;28;20032;-79
2023/01/17 03:21:45;;;;;;;4.07;2.42;;;1.60;99.90;;;;;;21055874;28;20044;-80
2023/01/17 03:31:45;;;;;;;3.67;1.40;;;1.50;99.90;;;;;;21015001;28;20474;-80
2023/01/17 03:41:46;;;;;;;5.57;2.42;;;1.40;99.90;;;;;;21094035;28;20032;-79
2023/01/17 03:51:47;;;;;;;6.88;2.92;;;1.00;99.90;;;;;;21093706;28;20115;-79
2023/01/17 04:01:48;;;;;;;6.20;3.13;;;1.00;99.90;;;;;;21067774;28;20506;-79
2023/01/17 04:11:49;;;;;;;7.57;3.63;;;0.70;99.90;;;;;;21005150;28;20041;-79
2023/01/17 04:21:50;;;;;;;6.38;3.25;;;0.50;99.90;;;;;;20984791;28;20029;-78
2023/01/17 04:31:51;;;;;;;8.98;4.47;;;0.40;99.90;;;;;;21034467;28;20024;-81
2023/01/17 04:41:51;;;;;;;5.35;3.03;;;0.20;99.90;;;;;;21101310;28;20028;-79
2023/01/17 04:51:52;;;;;;;9.57;2.13;;;0.00;99.90;;;;;;21104134;28;20395;-81
2023/01/17 05:01:53;;;;;;;4.38;2.15;;;-0.10;99.90;;;;;;21071027;28;20032;-80
2023/01/17 05:11:54;;;;;;;2.35;1.50;;;0.10;99.90;;;;;;21006922;28;20028;-78
2023/01/17 05:22:02;;;;;;;3.20;1.67;;;0.20;99.90;;;;;;21003345;28;20032;-79
2023/01/17 05:32:04;;;;;;;4.68;1.88;;;-0.40;99.90;;;;;;21020090;28;20040;-79
2023/01/17 05:42:04;;;;;;;11.82;2.92;;;-0.40;99.90;;;;;;21077320;28;20051;-77
2023/01/17 05:52:05;;;;;;;6.32;3.42;;;-0.40;99.90;;;;;;21075361;28;20024;-78
2023/01/17 06:02:06;;;;;;;7.95;3.25;;;-0.10;99.90;;;;;;20989080;28;20077;-77
2023/01/17 06:12:07;;;;;;;13.20;4.97;;;-0.10;99.90;;;;;;20987091;28;20045;-77
2023/01/17 06:22:08;;;;;;;12.27;5.63;;;0.20;99.90;;;;;;20999780;28;20029;-77
2023/01/17 06:32:08;;;;;;;17.33;7.28;;;0.30;99.90;;;;;;21033223;28;20159;-78
2023/01/17 06:42:09;;;;;;;24.92;6.63;;;0.40;99.90;;;;;;21013358;28;20044;-79
2023/01/17 06:52:10;;;;;;;18.02;8.93;;;0.30;99.90;;;;;;21012377;28;20033;-79
2023/01/17 07:02:11;;;;;;;25.60;9.27;;;0.20;99.90;;;;;;21013890;28;20028;-78
2023/01/17 07:12:12;;;;;;;25.13;9.48;;;0.20;99.90;;;;;;20998893;28;20048;-78
2023/01/17 07:22:13;;;;;;;20.17;8.63;;;0.10;99.90;;;;;;21013225;28;20041;-79
2023/01/17 07:32:14;;;;;;;14.75;6.38;;;0.10;99.90;;;;;;21034255;28;20028;-79
2023/01/17 07:42:14;;;;;;;19.13;7.68;;;0.30;99.90;;;;;;21080724;28;20088;-78
2023/01/17 07:52:15;;;;;;;22.45;7.03;;;0.40;99.90;;;;;;21089954;28;20085;-78
2023/01/17 08:02:18;;;;;;;15.77;6.35;;;0.40;99.90;;;;;;21061709;28;20028;-77
2023/01/17 08:12:19;;;;;;;19.20;8.30;;;0.50;99.90;;;;;;21003171;28;20575;-77
2023/01/17 08:22:20;;;;;;;12.85;6.05;;;0.60;99.90;;;;;;21003622;28;20028;-76
2023/01/17 08:32:22;;;;;;;11.27;5.90;;;0.60;99.90;;;;;;21012024;28;20029;-77
2023/01/17 08:42:22;;;;;;;12.00;5.90;;;0.60;99.90;;;;;;20999488;28;20028;-77
2023/01/17 08:52:23;;;;;;;13.43;6.03;;;0.70;99.90;;;;;;20998642;28;20028;-79
2023/01/17 09:02:24;;;;;;;11.27;6.13;;;0.80;99.90;;;;;;20999323;28;20046;-78
2023/01/17 09:12:25;;;;;;;15.48;6.40;;;0.90;99.90;;;;;;20996164;28;20025;-79
2023/01/17 09:22:26;;;;;;;16.45;7.47;;;0.90;99.90;;;;;;20997290;28;20040;-79
2023/01/17 09:32:27;;;;;;;14.35;6.70;;;0.90;99.90;;;;;;21002775;28;20029;-79
2023/01/17 09:42:35;;;;;;;12.98;6.30;;;0.90;99.90;;;;;;20998959;28;20464;-78
2023/01/17 09:52:35;;;;;;;13.77;6.95;;;1.10;99.90;;;;;;21000689;28;20028;-78
2023/01/17 10:02:57;;;;;;;23.77;9.95;;;1.30;99.90;;;;;;20971912;28;20048;-79
2023/01/17 10:13:14;;;;;;;12.55;5.57;;;1.40;99.90;;;;;;20919310;28;20111;-80
2023/01/17 10:23:45;;;;;;;9.15;6.03;;;1.50;99.90;;;;;;20918171;28;20381;-79
2023/01/17 10:33:56;;;;;;;13.17;5.00;;;1.50;99.90;;;;;;20967663;28;20085;-79
2023/01/17 10:44:26;;;;;;;7.70;4.63;;;1.70;99.90;;;;;;21084101;28;20034;-79
2023/01/17 10:54:39;;;;;;;7.55;4.57;;;1.80;99.90;;;;;;21064463;28;20028;-79
2023/01/17 11:04:41;;;;;;;7.63;4.25;;;1.80;99.90;;;;;;21037328;28;20082;-79
2023/01/17 11:14:57;;;;;;;7.75;4.47;;;1.90;99.90;;;;;;21018068;28;20039;-79
2023/01/17 11:24:59;;;;;;;9.63;4.15;;;1.90;99.90;;;;;;21012387;28;20036;-79
2023/01/17 11:35:05;;;;;;;7.00;4.15;;;1.90;99.90;;;;;;21011823;28;20550;-79
2023/01/17 11:45:23;;;;;;;8.52;4.72;;;2.00;99.90;;;;;;21012110;28;20032;-79
2023/01/17 11:55:24;;;;;;;7.00;4.40;;;2.10;99.90;;;;;;21014873;28;20039;-78
2023/01/17 12:05:55;;;;;;;8.55;4.38;;;2.20;99.90;;;;;;21064133;28;20024;-78
2023/01/17 12:16:30;;;;;;;6.73;3.90;;;2.30;99.90;;;;;;21093346;28;20560;-79
2023/01/17 12:27:03;;;;;;;6.57;3.65;;;2.50;99.90;;;;;;21097218;28;20127;-79
2023/01/17 12:37:35;;;;;;;8.93;3.25;;;2.50;99.90;;;;;;21024942;28;20024;-79
2023/01/17 12:47:42;;;;;;;7.00;3.78;;;2.70;99.90;;;;;;21005368;28;20029;-80
2023/01/17 12:57:50;;;;;;;4.97;2.95;;;2.60;99.90;;;;;;21009659;28;20028;-80
2023/01/17 13:08:00;;;;;;;5.93;2.95;;;2.50;99.90;;;;;;21004683;28;20050;-80
2023/01/17 13:18:14;;;;;;;6.68;3.03;;;2.60;99.90;;;;;;21002280;28;20056;-78
2023/01/17 13:28:53;;;;;;;4.80;2.90;;;2.70;99.90;;;;;;21004020;28;20036;-80
2023/01/17 13:39:12;;;;;;;5.72;2.05;;;2.70;99.90;;;;;;21001299;28;20036;-80
2023/01/17 13:49:35;;;;;;;2.38;1.40;;;2.80;99.90;;;;;;21005331;28;20028;-80
2023/01/17 13:59:36;;;;;;;6.43;1.83;;;2.50;99.90;;;;;;21003564;28;20025;-80
2023/01/17 14:09:41;;;;;;;3.08;1.58;;;1.90;99.90;;;;;;20997964;28;20056;-78
2023/01/17 14:19:44;;;;;;;2.88;1.67;;;1.50;99.90;;;;;;20997997;28;20450;-79
2023/01/17 14:30:05;;;;;;;7.95;2.08;;;1.20;99.90;;;;;;20994848;28;20039;-78
2023/01/17 14:40:35;;;;;;;4.00;2.35;;;1.10;99.90;;;;;;20999839;28;20020;-79
2023/01/17 14:50:40;;;;;;;8.82;2.63;;;0.90;99.90;;;;;;20993683;28;20040;-79
2023/01/17 15:00:41;;;;;;;4.10;2.65;;;0.90;99.90;;;;;;21016432;28;20109;-80
2023/01/17 15:10:57;;;;;;;5.35;2.85;;;1.00;99.90;;;;;;21013746;28;20058;-79
2023/01/17 15:21:02;;;;;;;6.15;3.75;;;0.90;99.90;;;;;;21010336;28;20040;-79
2023/01/17 15:31:20;;;;;;;5.20;3.28;;;0.90;99.90;;;;;;21015075;28;20035;-79
2023/01/17 15:41:24;;;;;;;8.63;4.32;;;0.90;99.90;;;;;;21007277;28;20040;-79
2023/01/17 15:51:34;;;;;;;9.05;4.70;;;0.80;99.90;;;;;;21006703;28;20039;-79
2023/01/17 16:01:35;;;;;;;7.25;3.88;;;0.90;99.90;;;;;;20990828;28;20028;-80
2023/01/17 16:11:36;;;;;;;9.02;4.57;;;0.80;99.90;;;;;;21014189;28;20031;-78
2023/01/17 16:21:38;;;;;;;10.02;5.15;;;0.80;99.90;;;;;;20955210;28;20116;-80
2023/01/17 16:31:39;;;;;;;9.10;5.43;;;0.90;99.90;;;;;;20924117;28;20040;-78
2023/01/17 16:41:40;;;;;;;10.32;5.40;;;0.90;99.90;;;;;;20999533;28;20036;-78
2023/01/17 16:51:44;;;;;;;12.48;5.80;;;0.90;99.90;;;;;;20997156;28;20450;-80
2023/01/17 17:01:46;;;;;;;23.38;10.68;;;0.90;99.90;;;;;;20989257;28;20493;-79
2023/01/17 17:11:47;;;;;;;11.55;6.70;;;0.90;99.90;;;;;;21001093;28;20032;-79
2023/01/17 17:21:48;;;;;;;13.52;6.70;;;0.90;99.90;;;;;;20999487;28;20028;-79
2023/01/17 17:31:49;;;;;;;13.73;7.47;;;1.00;99.90;;;;;;21015764;28;20024;-78
2023/01/17 17:41:49;;;;;;;13.60;7.60;;;0.90;99.90;;;;;;20999773;28;20059;-80
2023/01/17 17:51:50;;;;;;;32.25;15.82;;;0.90;99.90;;;;;;20999009;28;20115;-79
2023/01/17 18:01:52;;;;;;;23.92;11.43;;;0.80;99.90;;;;;;21004433;28;20044;-78
2023/01/17 18:11:52;;;;;;;23.58;9.70;;;0.80;99.90;;;;;;21001676;28;20037;-78
2023/01/17 18:21:53;;;;;;;14.93;8.07;;;0.90;99.90;;;;;;21018356;28;20036;-78
2023/01/17 18:31:54;;;;;;;31.90;15.20;;;0.90;99.90;;;;;;21013403;28;20028;-78
2023/01/17 18:41:56;;;;;;;22.02;11.80;;;1.00;99.90;;;;;;21010356;28;20131;-77
2023/01/17 18:51:57;;;;;;;42.05;16.45;;;1.00;99.90;;;;;;21008163;28;20028;-78
2023/01/17 19:01:58;;;;;;;38.90;19.08;;;1.00;99.90;;;;;;20989198;28;20032;-78
2023/01/17 19:11:58;;;;;;;23.90;12.43;;;0.80;99.90;;;;;;21006236;28;20162;-78
2023/01/17 19:21:59;;;;;;;22.58;11.05;;;0.80;99.90;;;;;;21005461;28;20024;-78
2023/01/17 19:32:00;;;;;;;28.58;13.55;;;0.90;99.90;;;;;;21001502;28;20035;-78
2023/01/17 19:42:01;;;;;;;34.70;15.00;;;0.80;99.90;;;;;;21002936;28;20032;-78
2023/01/17 19:52:02;;;;;;;40.75;15.73;;;0.80;99.90;;;;;;21000048;28;20112;-77
2023/01/17 20:02:03;;;;;;;35.50;14.55;;;0.80;99.90;;;;;;20998744;28;20035;-78
2023/01/17 20:12:04;;;;;;;33.08;14.23;;;0.80;99.90;;;;;;20997535;28;20027;-77
2023/01/17 20:22:05;;;;;;;32.05;14.20;;;0.80;99.90;;;;;;20996910;28;20033;-78
2023/01/17 20:32:06;;;;;;;35.83;14.25;;;0.90;99.90;;;;;;20980256;28;20051;-78
2023/01/17 20:42:07;;;;;;;37.63;15.48;;;0.90;99.90;;;;;;20988949;28;20041;-78
2023/01/17 20:52:08;;;;;;;31.27;13.35;;;0.80;99.90;;;;;;20927954;28;20368;-78
2023/01/17 21:02:09;;;;;;;34.22;13.63;;;0.80;99.90;;;;;;20998085;28;20028;-78
2023/01/17 21:12:10;;;;;;;29.98;12.95;;;0.80;99.90;;;;;;20999591;28;20036;-79
2023/01/17 21:22:13;;;;;;;61.33;24.63;;;0.90;99.90;;;;;;20991063;28;20034;-79
2023/01/17 21:32:16;;;;;;;46.95;19.83;;;1.00;99.90;;;;;;21000563;28;20112;-77
2023/01/17 21:42:17;;;;;;;43.25;16.85;;;1.00;99.90;;;;;;20979651;28;20033;-77
2023/01/17 21:52:17;;;;;;;37.33;15.85;;;1.00;99.90;;;;;;20974389;28;20039;-76
2023/01/17 22:02:18;;;;;;;34.97;14.75;;;1.00;99.90;;;;;;20992104;28;20036;-77
2023/01/17 22:12:19;;;;;;;39.50;16.45;;;1.00;99.90;;;;;;20974033;28;20029;-77
2023/01/17 22:22:20;;;;;;;39.50;16.95;;;1.00;99.90;;;;;;20974588;28;20028;-77
2023/01/17 22:32:21;;;;;;;45.35;17.73;;;0.90;99.90;;;;;;21017814;28;20030;-77
2023/01/17 22:42:22;;;;;;;46.97;18.17;;;0.80;99.90;;;;;;21058625;28;20078;-78
2023/01/17 22:52:23;;;;;;;49.05;17.95;;;0.90;99.90;;;;;;21076196;28;20035;-78
2023/01/17 23:02:24;;;;;;;37.95;15.70;;;0.90;99.90;;;;;;21034223;28;20047;-77
2023/01/17 23:12:24;;;;;;;39.40;15.52;;;1.00;99.90;;;;;;21010479;28;20028;-76
2023/01/17 23:22:28;;;;;;;39.53;16.33;;;1.00;99.90;;;;;;21011946;28;20024;-77
2023/01/17 23:32:29;;;;;;;39.72;16.83;;;1.00;99.90;;;;;;21015825;28;20074;-76
2023/01/17 23:52:50;;;;;;;91.47;20.95;;;1.00;99.90;;;;;;21000093;28;20028;-76
